sensor_id;sensor_type;location;lat;lon;timestamp;P1;durP1;ratioP1;P2;durP2;ratioP2
4732;SDS011;2380;53.668;10.008;2024-01-30T00:01:22;227.30;;;91.50;;
4732;SDS011;2380;53.668;10.008;2024-01-30T00:03:52;184.73;;;76.67;;
4732;SDS011;2380;53.668;10.008;2024-01-30T00:06:21;181.53;;;72.80;;
4732;SDS011;2380;53.668;10.008;2024-01-30T00:08:51;162.27;;;67.30;;
4732;SDS011;2380;53.668;10.008;2024-01-30T00:11:20;154.63;;;63.00;;
4732;SDS011;2380;53.668;10.008;2024-01-30T00:13:54;143.30;;;56.03;;
4732;SDS011;2380;53.668;10.008;2024-01-30T00:16:24;134.27;;;54.50;;
4732;SDS011;2380;53.668;10.008;2024-01-30T00:18:54;117.43;;;49.93;;
4732;SDS011;2380;53.668;10.008;2024-01-30T00:21:25;113.07;;;46.70;;
4732;SDS011;2380;53.668;10.008;2024-01-30T00:23:54;114.40;;;49.47;;
4732;SDS011;2380;53.668;10.008;2024-01-30T00:26:24;116.33;;;49.57;;
4732;SDS011;2380;53.668;10.008;2024-01-30T00:28:56;969.93;;;504.53;;
4732;SDS011;2380;53.668;10.008;2024-01-30T00:31:25;879.57;;;492.20;;
4732;SDS011;2380;53.668;10.008;2024-01-30T00:33:55;603.10;;;304.17;;
4732;SDS011;2380;53.668;10.008;2024-01-30T00:36:24;576.00;;;285.40;;
4732;SDS011;2380;53.668;10.008;2024-01-30T00:38:56;519.87;;;244.87;;
4732;SDS011;2380;53.668;10.008;2024-01-30T00:41:25;529.93;;;252.77;;
4732;SDS011;2380;53.668;10.008;2024-01-30T00:43:57;507.87;;;240.63;;
4732;SDS011;2380;53.668;10.008;2024-01-30T00:46:27;503.67;;;231.43;;
4732;SDS011;2380;53.668;10.008;2024-01-30T00:48:56;506.37;;;238.40;;
4732;SDS011;2380;53.668;10.008;2024-01-30T00:51:26;497.57;;;230.27;;
4732;SDS011;2380;53.668;10.008;2024-01-30T00:53:56;498.43;;;226.77;;
4732;SDS011;2380;53.668;10.008;2024-01-30T00:56:25;487.33;;;218.07;;
4732;SDS011;2380;53.668;10.008;2024-01-30T00:58:58;463.13;;;210.10;;
4732;SDS011;2380;53.668;10.008;2024-01-30T01:01:27;466.83;;;212.80;;
4732;SDS011;2380;53.668;10.008;2024-01-30T01:03:56;476.47;;;208.67;;
4732;SDS011;2380;53.668;10.008;2024-01-30T01:06:26;468.43;;;206.97;;
4732;SDS011;2380;53.668;10.008;2024-01-30T01:08:55;455.30;;;198.80;;
4732;SDS011;2380;53.668;10.008;2024-01-30T01:11:29;571.47;;;295.07;;
4732;SDS011;2380;53.668;10.008;2024-01-30T01:14:01;696.70;;;382.47;;
4732;SDS011;2380;53.668;10.008;2024-01-30T01:16:31;667.10;;;373.17;;
4732;SDS011;2380;53.668;10.008;2024-01-30T01:19:00;636.97;;;346.27;;
4732;SDS011;2380;53.668;10.008;2024-01-30T01:21:30;607.60;;;322.33;;
4732;SDS011;2380;53.668;10.008;2024-01-30T01:23:59;600.80;;;318.90;;
4732;SDS011;2380;53.668;10.008;2024-01-30T01:26:28;597.23;;;321.17;;
4732;SDS011;2380;53.668;10.008;2024-01-30T01:29:00;594.90;;;316.97;;
4732;SDS011;2380;53.668;10.008;2024-01-30T01:31:36;581.47;;;312.43;;
4732;SDS011;2380;53.668;10.008;2024-01-30T01:34:10;582.63;;;308.87;;
4732;SDS011;2380;53.668;10.008;2024-01-30T01:36:40;580.50;;;309.07;;
4732;SDS011;2380;53.668;10.008;2024-01-30T01:39:09;567.27;;;301.60;;
4732;SDS011;2380;53.668;10.008;2024-01-30T01:41:39;564.10;;;299.67;;
4732;SDS011;2380;53.668;10.008;2024-01-30T01:44:10;567.37;;;298.87;;
4732;SDS011;2380;53.668;10.008;2024-01-30T01:46:40;567.40;;;295.40;;
4732;SDS011;2380;53.668;10.008;2024-01-30T01:49:10;551.40;;;289.33;;
4732;SDS011;2380;53.668;10.008;2024-01-30T01:51:39;545.30;;;283.23;;
4732;SDS011;2380;53.668;10.008;2024-01-30T01:54:11;539.87;;;284.03;;
4732;SDS011;2380;53.668;10.008;2024-01-30T01:56:41;541.93;;;275.47;;
4732;SDS011;2380;53.668;10.008;2024-01-30T01:59:14;538.37;;;279.70;;
4732;SDS011;2380;53.668;10.008;2024-01-30T02:01:43;539.03;;;278.47;;
4732;SDS011;2380;53.668;10.008;2024-01-30T02:04:16;527.10;;;273.57;;
4732;SDS011;2380;53.668;10.008;2024-01-30T02:06:45;534.67;;;275.47;;
4732;SDS011;2380;53.668;10.008;2024-01-30T02:09:15;522.77;;;265.40;;
4732;SDS011;2380;53.668;10.008;2024-01-30T02:11:45;522.73;;;267.27;;
4732;SDS011;2380;53.668;10.008;2024-01-30T02:14:17;522.50;;;267.77;;
4732;SDS011;2380;53.668;10.008;2024-01-30T02:16:46;504.57;;;252.40;;
4732;SDS011;2380;53.668;10.008;2024-01-30T02:19:16;493.90;;;249.97;;
4732;SDS011;2380;53.668;10.008;2024-01-30T02:21:49;486.53;;;237.73;;
4732;SDS011;2380;53.668;10.008;2024-01-30T02:24:18;453.40;;;211.43;;
4732;SDS011;2380;53.668;10.008;2024-01-30T02:26:48;410.47;;;177.47;;
4732;SDS011;2380;53.668;10.008;2024-01-30T02:29:17;394.33;;;176.50;;
4732;SDS011;2380;53.668;10.008;2024-01-30T02:31:47;749.03;;;427.43;;
4732;SDS011;2380;53.668;10.008;2024-01-30T02:34:16;717.80;;;411.20;;
4732;SDS011;2380;53.668;10.008;2024-01-30T02:36:48;610.27;;;332.33;;
4732;SDS011;2380;53.668;10.008;2024-01-30T02:39:18;496.57;;;236.40;;
4732;SDS011;2380;53.668;10.008;2024-01-30T02:41:47;439.10;;;203.53;;
4732;SDS011;2380;53.668;10.008;2024-01-30T02:44:17;608.40;;;321.67;;
4732;SDS011;2380;53.668;10.008;2024-01-30T02:46:47;637.03;;;351.27;;
4732;SDS011;2380;53.668;10.008;2024-01-30T02:49:16;664.37;;;380.57;;
4732;SDS011;2380;53.668;10.008;2024-01-30T02:51:49;639.07;;;352.23;;
4732;SDS011;2380;53.668;10.008;2024-01-30T02:54:18;460.87;;;217.83;;
4732;SDS011;2380;53.668;10.008;2024-01-30T02:56:48;479.80;;;230.73;;
4732;SDS011;2380;53.668;10.008;2024-01-30T02:59:17;403.13;;;176.57;;
4732;SDS011;2380;53.668;10.008;2024-01-30T03:01:47;375.37;;;163.83;;
4732;SDS011;2380;53.668;10.008;2024-01-30T03:04:16;333.93;;;138.83;;
4732;SDS011;2380;53.668;10.008;2024-01-30T03:06:48;281.37;;;120.97;;
4732;SDS011;2380;53.668;10.008;2024-01-30T03:09:18;239.70;;;103.00;;
4732;SDS011;2380;53.668;10.008;2024-01-30T03:11:47;226.47;;;96.53;;
4732;SDS011;2380;53.668;10.008;2024-01-30T03:14:17;195.97;;;84.13;;
4732;SDS011;2380;53.668;10.008;2024-01-30T03:16:46;169.17;;;72.80;;
4732;SDS011;2380;53.668;10.008;2024-01-30T03:19:16;148.90;;;64.97;;
4732;SDS011;2380;53.668;10.008;2024-01-30T03:21:45;136.47;;;59.20;;
4732;SDS011;2380;53.668;10.008;2024-01-30T03:24:17;124.30;;;53.90;;
4732;SDS011;2380;53.668;10.008;2024-01-30T03:26:47;111.63;;;50.77;;
4732;SDS011;2380;53.668;10.008;2024-01-30T03:29:16;95.13;;;44.13;;
4732;SDS011;2380;53.668;10.008;2024-01-30T03:31:45;96.90;;;44.17;;
4732;SDS011;2380;53.668;10.008;2024-01-30T03:34:15;83.30;;;39.67;;
4732;SDS011;2380;53.668;10.008;2024-01-30T03:36:44;76.23;;;34.70;;
4732;SDS011;2380;53.668;10.008;2024-01-30T03:39:14;61.00;;;30.90;;
4732;SDS011;2380;53.668;10.008;2024-01-30T03:41:46;62.93;;;30.50;;
4732;SDS011;2380;53.668;10.008;2024-01-30T03:44:15;57.57;;;26.37;;
4732;SDS011;2380;53.668;10.008;2024-01-30T03:46:44;50.73;;;24.70;;
4732;SDS011;2380;53.668;10.008;2024-01-30T03:49:15;52.07;;;25.40;;
4732;SDS011;2380;53.668;10.008;2024-01-30T03:51:44;43.63;;;22.20;;
4732;SDS011;2380;53.668;10.008;2024-01-30T03:54:14;42.70;;;21.37;;
4732;SDS011;2380;53.668;10.008;2024-01-30T03:56:46;38.20;;;19.23;;
4732;SDS011;2380;53.668;10.008;2024-01-30T03:59:15;31.50;;;16.90;;
4732;SDS011;2380;53.668;10.008;2024-01-30T04:01:50;37.57;;;17.60;;
4732;SDS011;2380;53.668;10.008;2024-01-30T04:04:20;31.00;;;15.60;;
4732;SDS011;2380;53.668;10.008;2024-01-30T04:06:50;29.07;;;15.67;;
4732;SDS011;2380;53.668;10.008;2024-01-30T04:09:19;32.80;;;16.40;;
4732;SDS011;2380;53.668;10.008;2024-01-30T04:11:51;27.00;;;15.70;;
4732;SDS011;2380;53.668;10.008;2024-01-30T04:14:20;24.80;;;13.87;;
4732;SDS011;2380;53.668;10.008;2024-01-30T04:16:50;26.77;;;14.17;;
4732;SDS011;2380;53.668;10.008;2024-01-30T04:19:19;26.00;;;14.17;;
4732;SDS011;2380;53.668;10.008;2024-01-30T04:21:49;24.50;;;14.50;;
4732;SDS011;2380;53.668;10.008;2024-01-30T04:24:18;20.40;;;12.23;;
4732;SDS011;2380;53.668;10.008;2024-01-30T04:26:48;22.90;;;13.13;;
4732;SDS011;2380;53.668;10.008;2024-01-30T04:29:20;20.67;;;11.37;;
4732;SDS011;2380;53.668;10.008;2024-01-30T04:31:49;20.37;;;11.40;;
4732;SDS011;2380;53.668;10.008;2024-01-30T04:34:19;18.90;;;11.70;;
4732;SDS011;2380;53.668;10.008;2024-01-30T04:36:48;21.03;;;11.70;;
4732;SDS011;2380;53.668;10.008;2024-01-30T04:39:18;20.57;;;11.57;;
4732;SDS011;2380;53.668;10.008;2024-01-30T04:41:47;20.13;;;11.50;;
4732;SDS011;2380;53.668;10.008;2024-01-30T04:44:16;16.90;;;10.60;;
4732;SDS011;2380;53.668;10.008;2024-01-30T04:46:48;18.00;;;10.63;;
4732;SDS011;2380;53.668;10.008;2024-01-30T04:49:18;18.30;;;10.70;;
4732;SDS011;2380;53.668;10.008;2024-01-30T04:51:47;17.67;;;10.83;;
4732;SDS011;2380;53.668;10.008;2024-01-30T04:54:17;17.60;;;9.90;;
4732;SDS011;2380;53.668;10.008;2024-01-30T04:56:46;19.07;;;11.27;;
4732;SDS011;2380;53.668;10.008;2024-01-30T04:59:16;15.60;;;9.27;;
4732;SDS011;2380;53.668;10.008;2024-01-30T05:01:45;16.60;;;10.00;;
4732;SDS011;2380;53.668;10.008;2024-01-30T05:04:17;18.03;;;10.87;;
4732;SDS011;2380;53.668;10.008;2024-01-30T05:06:47;17.70;;;11.07;;
4732;SDS011;2380;53.668;10.008;2024-01-30T05:09:16;16.00;;;10.00;;
4732;SDS011;2380;53.668;10.008;2024-01-30T05:11:46;16.33;;;9.90;;
4732;SDS011;2380;53.668;10.008;2024-01-30T05:14:15;15.00;;;9.90;;
4732;SDS011;2380;53.668;10.008;2024-01-30T05:16:44;16.23;;;9.97;;
4732;SDS011;2380;53.668;10.008;2024-01-30T05:19:14;19.07;;;10.20;;
4732;SDS011;2380;53.668;10.008;2024-01-30T05:21:46;15.77;;;9.80;;
4732;SDS011;2380;53.668;10.008;2024-01-30T05:24:16;20.00;;;10.20;;
4732;SDS011;2380;53.668;10.008;2024-01-30T05:26:47;14.03;;;9.00;;
4732;SDS011;2380;53.668;10.008;2024-01-30T05:29:17;16.57;;;10.03;;
4732;SDS011;2380;53.668;10.008;2024-01-30T05:31:47;18.63;;;10.13;;
4732;SDS011;2380;53.668;10.008;2024-01-30T05:34:16;18.27;;;9.80;;
4732;SDS011;2380;53.668;10.008;2024-01-30T05:36:48;17.73;;;10.00;;
4732;SDS011;2380;53.668;10.008;2024-01-30T05:39:17;15.60;;;9.37;;
4732;SDS011;2380;53.668;10.008;2024-01-30T05:41:47;18.07;;;10.40;;
4732;SDS011;2380;53.668;10.008;2024-01-30T05:44:16;18.20;;;10.37;;
4732;SDS011;2380;53.668;10.008;2024-01-30T05:46:46;15.77;;;8.90;;
4732;SDS011;2380;53.668;10.008;2024-01-30T05:49:15;15.23;;;9.73;;
4732;SDS011;2380;53.668;10.008;2024-01-30T05:51:44;20.50;;;10.63;;
4732;SDS011;2380;53.668;10.008;2024-01-30T05:54:17;19.87;;;10.90;;
4732;SDS011;2380;53.668;10.008;2024-01-30T05:56:46;17.60;;;10.00;;
4732;SDS011;2380;53.668;10.008;2024-01-30T05:59:15;17.07;;;10.10;;
4732;SDS011;2380;53.668;10.008;2024-01-30T06:01:45;18.53;;;10.63;;
4732;SDS011;2380;53.668;10.008;2024-01-30T06:04:15;19.13;;;10.13;;
4732;SDS011;2380;53.668;10.008;2024-01-30T06:06:45;16.93;;;10.33;;
4732;SDS011;2380;53.668;10.008;2024-01-30T06:09:17;18.30;;;10.33;;
4732;SDS011;2380;53.668;10.008;2024-01-30T06:11:46;18.10;;;9.70;;
4732;SDS011;2380;53.668;10.008;2024-01-30T06:14:15;24.90;;;11.27;;
4732;SDS011;2380;53.668;10.008;2024-01-30T06:16:45;19.20;;;11.93;;
4732;SDS011;2380;53.668;10.008;2024-01-30T06:19:14;18.33;;;10.87;;
4732;SDS011;2380;53.668;10.008;2024-01-30T06:21:44;16.40;;;10.60;;
4732;SDS011;2380;53.668;10.008;2024-01-30T06:24:13;18.40;;;10.70;;
4732;SDS011;2380;53.668;10.008;2024-01-30T06:26:46;17.20;;;10.63;;
4732;SDS011;2380;53.668;10.008;2024-01-30T06:29:15;20.23;;;11.40;;
4732;SDS011;2380;53.668;10.008;2024-01-30T06:31:45;15.83;;;10.10;;
4732;SDS011;2380;53.668;10.008;2024-01-30T06:34:15;47.67;;;23.47;;
4732;SDS011;2380;53.668;10.008;2024-01-30T06:36:44;996.77;;;587.20;;
4732;SDS011;2380;53.668;10.008;2024-01-30T06:39:14;637.63;;;349.97;;
4732;SDS011;2380;53.668;10.008;2024-01-30T06:41:46;469.23;;;218.93;;
4732;SDS011;2380;53.668;10.008;2024-01-30T06:44:15;478.53;;;217.97;;
4732;SDS011;2380;53.668;10.008;2024-01-30T06:46:45;448.10;;;194.73;;
4732;SDS011;2380;53.668;10.008;2024-01-30T06:49:14;433.90;;;187.03;;
4732;SDS011;2380;53.668;10.008;2024-01-30T06:51:43;434.17;;;185.97;;
4732;SDS011;2380;53.668;10.008;2024-01-30T06:54:13;411.40;;;171.37;;
4732;SDS011;2380;53.668;10.008;2024-01-30T06:56:42;387.97;;;162.23;;
4732;SDS011;2380;53.668;10.008;2024-01-30T06:59:14;388.73;;;159.90;;
4732;SDS011;2380;53.668;10.008;2024-01-30T07:01:44;360.77;;;153.27;;
4732;SDS011;2380;53.668;10.008;2024-01-30T07:04:13;356.80;;;150.00;;
4732;SDS011;2380;53.668;10.008;2024-01-30T07:06:43;359.50;;;147.77;;
4732;SDS011;2380;53.668;10.008;2024-01-30T07:09:13;343.87;;;145.90;;
4732;SDS011;2380;53.668;10.008;2024-01-30T07:11:42;334.87;;;145.07;;
4732;SDS011;2380;53.668;10.008;2024-01-30T07:14:14;347.77;;;143.53;;
4732;SDS011;2380;53.668;10.008;2024-01-30T07:16:44;332.20;;;142.93;;
4732;SDS011;2380;53.668;10.008;2024-01-30T07:19:13;327.37;;;141.80;;
4732;SDS011;2380;53.668;10.008;2024-01-30T07:21:43;317.30;;;139.57;;
4732;SDS011;2380;53.668;10.008;2024-01-30T07:24:12;591.33;;;335.13;;
4732;SDS011;2380;53.668;10.008;2024-01-30T07:26:42;710.57;;;415.80;;
4732;SDS011;2380;53.668;10.008;2024-01-30T07:29:14;578.13;;;302.57;;
4732;SDS011;2380;53.668;10.008;2024-01-30T07:31:43;415.13;;;181.40;;
4732;SDS011;2380;53.668;10.008;2024-01-30T07:34:12;394.20;;;165.10;;
4732;SDS011;2380;53.668;10.008;2024-01-30T07:36:42;330.83;;;144.20;;
4732;SDS011;2380;53.668;10.008;2024-01-30T07:39:12;294.47;;;125.70;;
4732;SDS011;2380;53.668;10.008;2024-01-30T07:41:42;486.73;;;233.50;;
4732;SDS011;2380;53.668;10.008;2024-01-30T07:44:13;713.53;;;381.57;;
4732;SDS011;2380;53.668;10.008;2024-01-30T07:46:43;657.17;;;329.30;;
4732;SDS011;2380;53.668;10.008;2024-01-30T07:49:12;465.03;;;203.30;;
4732;SDS011;2380;53.668;10.008;2024-01-30T07:51:42;385.30;;;157.73;;
4732;SDS011;2380;53.668;10.008;2024-01-30T07:54:13;364.23;;;148.40;;
4732;SDS011;2380;53.668;10.008;2024-01-30T07:56:42;361.47;;;146.13;;
4732;SDS011;2380;53.668;10.008;2024-01-30T07:59:14;306.40;;;121.07;;
4732;SDS011;2380;53.668;10.008;2024-01-30T08:01:43;288.63;;;118.67;;
4732;SDS011;2380;53.668;10.008;2024-01-30T08:04:13;235.83;;;99.20;;
4732;SDS011;2380;53.668;10.008;2024-01-30T08:06:42;231.57;;;89.30;;
4732;SDS011;2380;53.668;10.008;2024-01-30T10:01:28;448.83;;;237.30;;
4732;SDS011;2380;53.668;10.008;2024-01-30T10:04:13;452.17;;;236.37;;
4732;SDS011;2380;53.668;10.008;2024-01-30T10:06:43;469.40;;;253.60;;
4732;SDS011;2380;53.668;10.008;2024-01-30T10:09:13;463.40;;;245.40;;
4732;SDS011;2380;53.668;10.008;2024-01-30T10:11:42;668.03;;;439.53;;
4732;SDS011;2380;53.668;10.008;2024-01-30T10:14:12;568.43;;;350.03;;
4732;SDS011;2380;53.668;10.008;2024-01-30T10:16:41;572.47;;;357.10;;
4732;SDS011;2380;53.668;10.008;2024-01-30T10:19:15;742.20;;;493.27;;
4732;SDS011;2380;53.668;10.008;2024-01-30T10:21:45;596.60;;;374.60;;
4732;SDS011;2380;53.668;10.008;2024-01-30T10:24:15;587.73;;;356.73;;
4732;SDS011;2380;53.668;10.008;2024-01-30T10:26:43;567.60;;;344.67;;
4732;SDS011;2380;53.668;10.008;2024-01-30T10:29:12;741.23;;;491.80;;
4732;SDS011;2380;53.668;10.008;2024-01-30T10:31:42;1014.87;;;679.27;;
4732;SDS011;2380;53.668;10.008;2024-01-30T10:34:11;735.67;;;482.97;;
4732;SDS011;2380;53.668;10.008;2024-01-30T10:36:52;694.67;;;444.93;;
4732;SDS011;2380;53.668;10.008;2024-01-30T10:39:25;732.27;;;485.23;;
4732;SDS011;2380;53.668;10.008;2024-01-30T10:41:59;690.87;;;444.13;;
4732;SDS011;2380;53.668;10.008;2024-01-30T10:44:34;825.80;;;570.20;;
4732;SDS011;2380;53.668;10.008;2024-01-30T10:47:06;715.90;;;480.00;;
4732;SDS011;2380;53.668;10.008;2024-01-30T10:49:36;703.10;;;458.13;;
4732;SDS011;2380;53.668;10.008;2024-01-30T10:52:08;688.73;;;452.90;;
4732;SDS011;2380;53.668;10.008;2024-01-30T10:54:39;698.20;;;460.77;;
4732;SDS011;2380;53.668;10.008;2024-01-30T10:57:09;695.87;;;458.63;;
4732;SDS011;2380;53.668;10.008;2024-01-30T10:59:39;671.20;;;443.87;;
4732;SDS011;2380;53.668;10.008;2024-01-30T11:02:09;662.13;;;428.80;;
4732;SDS011;2380;53.668;10.008;2024-01-30T11:04:40;661.67;;;422.07;;
4732;SDS011;2380;53.668;10.008;2024-01-30T11:07:17;649.63;;;419.17;;
4732;SDS011;2380;53.668;10.008;2024-01-30T11:09:50;647.80;;;413.40;;
4732;SDS011;2380;53.668;10.008;2024-01-30T11:12:22;637.13;;;417.37;;
4732;SDS011;2380;53.668;10.008;2024-01-30T11:15:01;623.00;;;400.37;;
4732;SDS011;2380;53.668;10.008;2024-01-30T11:17:44;630.33;;;397.57;;
4732;SDS011;2380;53.668;10.008;2024-01-30T11:20:15;626.13;;;391.40;;
4732;SDS011;2380;53.668;10.008;2024-01-30T11:22:49;624.27;;;398.97;;
4732;SDS011;2380;53.668;10.008;2024-01-30T11:25:20;598.10;;;380.33;;
4732;SDS011;2380;53.668;10.008;2024-01-30T11:27:50;680.13;;;443.30;;
4732;SDS011;2380;53.668;10.008;2024-01-30T11:30:21;777.63;;;502.40;;
4732;SDS011;2380;53.668;10.008;2024-01-30T11:33:00;666.60;;;415.03;;
4732;SDS011;2380;53.668;10.008;2024-01-30T11:35:32;857.63;;;579.23;;
4732;SDS011;2380;53.668;10.008;2024-01-30T11:38:04;868.73;;;578.63;;
4732;SDS011;2380;53.668;10.008;2024-01-30T11:40:34;692.20;;;448.33;;
4732;SDS011;2380;53.668;10.008;2024-01-30T11:43:05;670.20;;;432.07;;
4732;SDS011;2380;53.668;10.008;2024-01-30T11:45:35;662.43;;;428.73;;
4732;SDS011;2380;53.668;10.008;2024-01-30T11:48:06;652.00;;;423.37;;
4732;SDS011;2380;53.668;10.008;2024-01-30T11:50:37;657.73;;;419.53;;
4732;SDS011;2380;53.668;10.008;2024-01-30T11:53:10;637.87;;;408.63;;
4732;SDS011;2380;53.668;10.008;2024-01-30T11:55:40;659.03;;;418.60;;
4732;SDS011;2380;53.668;10.008;2024-01-30T11:58:09;714.00;;;475.93;;
4732;SDS011;2380;53.668;10.008;2024-01-30T12:00:39;650.17;;;420.33;;
4732;SDS011;2380;53.668;10.008;2024-01-30T12:03:08;642.90;;;409.93;;
4732;SDS011;2380;53.668;10.008;2024-01-30T12:05:40;713.57;;;482.50;;
4732;SDS011;2380;53.668;10.008;2024-01-30T12:08:16;675.33;;;453.97;;
4732;SDS011;2380;53.668;10.008;2024-01-30T12:10:46;684.47;;;449.67;;
4732;SDS011;2380;53.668;10.008;2024-01-30T12:13:24;737.23;;;501.30;;
4732;SDS011;2380;53.668;10.008;2024-01-30T12:15:58;963.70;;;664.37;;
4732;SDS011;2380;53.668;10.008;2024-01-30T12:18:28;995.10;;;678.83;;
4732;SDS011;2380;53.668;10.008;2024-01-30T12:20:58;726.67;;;484.83;;
4732;SDS011;2380;53.668;10.008;2024-01-30T12:23:31;653.80;;;425.87;;
4732;SDS011;2380;53.668;10.008;2024-01-30T12:26:01;636.17;;;400.20;;
4732;SDS011;2380;53.668;10.008;2024-01-30T12:28:33;794.43;;;548.27;;
4732;SDS011;2380;53.668;10.008;2024-01-30T12:31:03;870.33;;;588.67;;
4732;SDS011;2380;53.668;10.008;2024-01-30T12:33:33;770.17;;;494.57;;
4732;SDS011;2380;53.668;10.008;2024-01-30T12:36:05;598.00;;;365.37;;
4732;SDS011;2380;53.668;10.008;2024-01-30T12:38:38;533.67;;;320.67;;
4732;SDS011;2380;53.668;10.008;2024-01-30T12:41:07;528.10;;;303.70;;
4732;SDS011;2380;53.668;10.008;2024-01-30T12:43:37;501.87;;;286.13;;
4732;SDS011;2380;53.668;10.008;2024-01-30T12:46:07;462.53;;;245.77;;
4732;SDS011;2380;53.668;10.008;2024-01-30T12:48:36;433.77;;;224.23;;
4732;SDS011;2380;53.668;10.008;2024-01-30T12:51:06;399.77;;;202.57;;
4732;SDS011;2380;53.668;10.008;2024-01-30T12:53:38;393.90;;;192.13;;
4732;SDS011;2380;53.668;10.008;2024-01-30T12:56:07;366.30;;;182.43;;
4732;SDS011;2380;53.668;10.008;2024-01-30T12:58:37;330.87;;;165.37;;
4732;SDS011;2380;53.668;10.008;2024-01-30T13:01:08;288.67;;;145.70;;
4732;SDS011;2380;53.668;10.008;2024-01-30T13:03:37;326.23;;;159.13;;
4732;SDS011;2380;53.668;10.008;2024-01-30T13:06:07;285.60;;;141.40;;
4732;SDS011;2380;53.668;10.008;2024-01-30T13:08:39;269.33;;;133.33;;
4732;SDS011;2380;53.668;10.008;2024-01-30T13:11:08;232.47;;;114.23;;
4732;SDS011;2380;53.668;10.008;2024-01-30T13:13:46;241.53;;;116.00;;
4732;SDS011;2380;53.668;10.008;2024-01-30T13:16:16;214.17;;;105.80;;
4732;SDS011;2380;53.668;10.008;2024-01-30T13:18:46;206.13;;;98.10;;
4732;SDS011;2380;53.668;10.008;2024-01-30T13:21:15;184.03;;;90.67;;
4732;SDS011;2380;53.668;10.008;2024-01-30T13:23:47;171.80;;;85.43;;
4732;SDS011;2380;53.668;10.008;2024-01-30T13:26:19;161.83;;;76.87;;
4732;SDS011;2380;53.668;10.008;2024-01-30T13:28:49;142.80;;;65.50;;
4732;SDS011;2380;53.668;10.008;2024-01-30T13:31:18;137.83;;;64.77;;
4732;SDS011;2380;53.668;10.008;2024-01-30T13:33:48;131.97;;;62.97;;
4732;SDS011;2380;53.668;10.008;2024-01-30T13:36:18;109.50;;;54.03;;
4732;SDS011;2380;53.668;10.008;2024-01-30T13:38:50;123.60;;;58.87;;
4732;SDS011;2380;53.668;10.008;2024-01-30T13:41:19;237.00;;;104.00;;
4732;SDS011;2380;53.668;10.008;2024-01-30T13:43:49;356.90;;;157.27;;
4732;SDS011;2380;53.668;10.008;2024-01-30T13:46:18;256.93;;;122.83;;
4732;SDS011;2380;53.668;10.008;2024-01-30T13:48:45;161.40;;;75.30;;
4732;SDS011;2380;53.668;10.008;2024-01-30T13:51:15;132.87;;;62.20;;
4732;SDS011;2380;53.668;10.008;2024-01-30T13:53:44;123.63;;;58.37;;
4732;SDS011;2380;53.668;10.008;2024-01-30T13:56:16;118.13;;;56.97;;
4732;SDS011;2380;53.668;10.008;2024-01-30T13:58:47;108.03;;;52.93;;
4732;SDS011;2380;53.668;10.008;2024-01-30T14:01:17;97.23;;;48.90;;
4732;SDS011;2380;53.668;10.008;2024-01-30T14:03:46;107.37;;;48.23;;
4732;SDS011;2380;53.668;10.008;2024-01-30T14:06:16;83.67;;;41.20;;
4732;SDS011;2380;53.668;10.008;2024-01-30T14:08:45;83.03;;;40.97;;
4732;SDS011;2380;53.668;10.008;2024-01-30T14:11:18;122.90;;;63.43;;
4732;SDS011;2380;53.668;10.008;2024-01-30T14:13:47;539.70;;;302.50;;
4732;SDS011;2380;53.668;10.008;2024-01-30T14:16:16;559.67;;;302.07;;
4732;SDS011;2380;53.668;10.008;2024-01-30T14:18:46;357.40;;;161.50;;
4732;SDS011;2380;53.668;10.008;2024-01-30T14:21:15;225.37;;;100.07;;
4732;SDS011;2380;53.668;10.008;2024-01-30T14:23:45;532.67;;;292.40;;
4732;SDS011;2380;53.668;10.008;2024-01-30T14:26:14;524.87;;;290.27;;
4732;SDS011;2380;53.668;10.008;2024-01-30T14:28:47;485.57;;;249.53;;
4732;SDS011;2380;53.668;10.008;2024-01-30T14:31:16;374.57;;;168.67;;
4732;SDS011;2380;53.668;10.008;2024-01-30T14:33:47;274.30;;;124.10;;
4732;SDS011;2380;53.668;10.008;2024-01-30T14:36:17;289.63;;;131.87;;
4732;SDS011;2380;53.668;10.008;2024-01-30T14:38:47;248.57;;;115.60;;
4732;SDS011;2380;53.668;10.008;2024-01-30T14:41:16;261.37;;;118.87;;
4732;SDS011;2380;53.668;10.008;2024-01-30T14:43:49;233.67;;;110.70;;
4732;SDS011;2380;53.668;10.008;2024-01-30T14:46:18;229.87;;;107.73;;
4732;SDS011;2380;53.668;10.008;2024-01-30T14:48:48;707.80;;;415.23;;
4732;SDS011;2380;53.668;10.008;2024-01-30T14:51:18;732.67;;;449.83;;
4732;SDS011;2380;53.668;10.008;2024-01-30T14:53:48;512.47;;;265.00;;
4732;SDS011;2380;53.668;10.008;2024-01-30T14:56:17;463.90;;;228.73;;
4732;SDS011;2380;53.668;10.008;2024-01-30T14:58:50;465.27;;;236.67;;
4732;SDS011;2380;53.668;10.008;2024-01-30T15:01:20;434.67;;;215.70;;
4732;SDS011;2380;53.668;10.008;2024-01-30T15:03:49;443.83;;;212.40;;
4732;SDS011;2380;53.668;10.008;2024-01-30T15:06:19;477.70;;;256.47;;
4732;SDS011;2380;53.668;10.008;2024-01-30T15:08:50;638.23;;;396.50;;
4732;SDS011;2380;53.668;10.008;2024-01-30T15:11:20;674.03;;;419.13;;
4732;SDS011;2380;53.668;10.008;2024-01-30T15:13:51;649.63;;;403.60;;
4732;SDS011;2380;53.668;10.008;2024-01-30T15:16:21;544.77;;;308.60;;
4732;SDS011;2380;53.668;10.008;2024-01-30T15:18:50;541.97;;;317.30;;
4732;SDS011;2380;53.668;10.008;2024-01-30T15:21:20;555.73;;;326.13;;
4732;SDS011;2380;53.668;10.008;2024-01-30T15:23:52;556.37;;;325.07;;
4732;SDS011;2380;53.668;10.008;2024-01-30T15:26:21;566.07;;;326.57;;
4732;SDS011;2380;53.668;10.008;2024-01-30T15:28:53;552.20;;;321.37;;
4732;SDS011;2380;53.668;10.008;2024-01-30T15:31:23;548.23;;;319.83;;
4732;SDS011;2380;53.668;10.008;2024-01-30T15:33:52;543.73;;;309.93;;
4732;SDS011;2380;53.668;10.008;2024-01-30T15:36:23;542.37;;;312.60;;
4732;SDS011;2380;53.668;10.008;2024-01-30T15:38:53;543.50;;;311.07;;
4732;SDS011;2380;53.668;10.008;2024-01-30T15:41:23;548.07;;;315.63;;
4732;SDS011;2380;53.668;10.008;2024-01-30T15:43:55;530.40;;;309.33;;
4732;SDS011;2380;53.668;10.008;2024-01-30T15:46:25;527.23;;;300.80;;
4732;SDS011;2380;53.668;10.008;2024-01-30T15:48:54;527.00;;;301.60;;
4732;SDS011;2380;53.668;10.008;2024-01-30T15:51:24;530.27;;;297.03;;
4732;SDS011;2380;53.668;10.008;2024-01-30T15:53:55;531.20;;;299.37;;
4732;SDS011;2380;53.668;10.008;2024-01-30T15:56:24;514.23;;;295.73;;
4732;SDS011;2380;53.668;10.008;2024-01-30T15:58:56;518.63;;;294.43;;
4732;SDS011;2380;53.668;10.008;2024-01-30T16:01:26;517.63;;;288.87;;
4732;SDS011;2380;53.668;10.008;2024-01-30T16:03:56;515.73;;;297.10;;
4732;SDS011;2380;53.668;10.008;2024-01-30T16:06:25;506.13;;;290.67;;
4732;SDS011;2380;53.668;10.008;2024-01-30T16:08:55;508.10;;;294.73;;
4732;SDS011;2380;53.668;10.008;2024-01-30T16:11:24;496.40;;;279.47;;
4732;SDS011;2380;53.668;10.008;2024-01-30T16:13:57;502.77;;;281.63;;
4732;SDS011;2380;53.668;10.008;2024-01-30T16:16:26;500.30;;;275.60;;
4732;SDS011;2380;53.668;10.008;2024-01-30T16:18:56;487.37;;;275.10;;
4732;SDS011;2380;53.668;10.008;2024-01-30T16:21:25;497.70;;;276.27;;
4732;SDS011;2380;53.668;10.008;2024-01-30T16:23:55;491.73;;;274.43;;
4732;SDS011;2380;53.668;10.008;2024-01-30T16:26:25;498.73;;;280.23;;